Ripton, Vermont
Current Conditions -  °F | °C
As of 7:35 PM on Saturday 25 Oct 2014 (Local Time) from K6B0 Reporting Station
Overcast Overcast  
Wind Chill: 55°   Ceiling: 5000
Heat Index: 55°   Visibility: 10mi
Dew Point: 47°   Wind: 6mph
Humidity: 73%   Direction: 160°SSE
Pressure: 29.51"   Gusts: NA
Location:  43.97°N, 73.04°W
Report Text: K6B0 252335Z AUTO 16005KT 10SM OVC050 13/08 A2951 RMK AO2 T01300082
Loading
Personal Weather Stations






























Interactive Weather Map
Tropical Storm Tracking
New forecast layout! Learn more

10-Day Weather Forecast

Advertisements
Track Severe Weather on mobile